createdAt,value
2023-02-06T00:01:06.506Z,78.36
2023-02-06T00:06:08.684Z,78.32
2023-02-06T00:11:13.388Z,78.30
2023-02-06T00:16:16.317Z,78.21
2023-02-06T00:21:20.226Z,77.98
2023-02-06T00:26:22.767Z,77.93
2023-02-06T00:31:24.453Z,77.66
2023-02-06T00:36:26.301Z,77.70
2023-02-06T00:41:27.996Z,77.81
2023-02-06T00:46:29.800Z,78.09
2023-02-06T00:51:31.508Z,77.85
2023-02-06T00:56:33.565Z,78.04
2023-02-06T01:01:35.220Z,78.23
2023-02-06T01:06:36.958Z,78.05
2023-02-06T01:11:38.654Z,77.66
2023-02-06T01:16:40.372Z,78.30
2023-02-06T01:21:42.133Z,78.72
2023-02-06T01:26:43.932Z,78.59
2023-02-06T01:31:45.746Z,78.26
2023-02-06T01:36:47.508Z,78.66
2023-02-06T01:41:50.999Z,78.49
2023-02-06T01:46:55.782Z,78.58
2023-02-06T01:52:07.523Z,78.63
2023-02-06T01:57:12.481Z,78.66
2023-02-06T02:02:14.348Z,78.33
2023-02-06T02:07:31.793Z,78.04
2023-02-06T02:12:33.674Z,78.34
2023-02-06T02:18:02.762Z,78.06
2023-02-06T02:23:30.491Z,78.01
2023-02-06T02:28:34.162Z,77.72
2023-02-06T02:34:13.806Z,77.75
2023-02-06T02:39:21.518Z,77.04
2023-02-06T02:44:43.055Z,76.73
2023-02-06T02:49:45.878Z,77.24
2023-02-06T02:54:47.719Z,77.43
2023-02-06T02:59:51.791Z,77.39
2023-02-06T03:05:00.725Z,76.99
2023-02-06T03:10:31.489Z,77.28
2023-02-06T03:15:50.510Z,76.38
2023-02-06T03:20:52.808Z,76.48
2023-02-06T03:25:58.242Z,76.79
2023-02-06T03:31:05.588Z,76.86
2023-02-06T03:36:09.963Z,76.52
2023-02-06T03:41:13.771Z,76.55
2023-02-06T03:46:18.111Z,76.72
2023-02-06T03:51:28.360Z,76.12
2023-02-06T03:56:47.053Z,77.21
2023-02-06T04:01:53.029Z,76.88
2023-02-06T04:06:57.672Z,76.70
2023-02-06T04:11:59.320Z,76.92
2023-02-06T04:17:00.981Z,76.55
2023-02-06T04:22:03.436Z,76.47
2023-02-06T04:27:07.025Z,76.57
2023-02-06T04:32:09.172Z,76.47
2023-02-06T04:37:12.480Z,76.64
2023-02-06T04:42:14.129Z,76.92
2023-02-06T04:47:15.858Z,76.20
2023-02-06T04:52:17.635Z,76.35
2023-02-06T04:57:19.421Z,76.72
2023-02-06T05:02:21.324Z,76.52
2023-02-06T05:07:23.007Z,76.87
2023-02-06T05:12:24.899Z,76.66
2023-02-06T05:17:26.623Z,76.59
2023-02-06T05:22:28.438Z,76.52
2023-02-06T05:27:30.108Z,76.71
2023-02-06T05:32:31.762Z,76.55
2023-02-06T05:37:33.510Z,76.91
2023-02-06T05:42:35.840Z,76.46
2023-02-06T05:47:37.488Z,76.30
2023-02-06T05:52:39.224Z,76.45
2023-02-06T05:57:41.018Z,76.16
2023-02-06T06:02:42.664Z,76.19
2023-02-06T06:07:44.362Z,75.66
2023-02-06T06:12:46.094Z,76.24
2023-02-06T06:17:47.831Z,76.13
2023-02-06T06:22:49.510Z,76.20
2023-02-06T06:27:51.209Z,76.04
2023-02-06T06:32:52.936Z,76.17
2023-02-06T06:37:54.579Z,75.47
2023-02-06T06:42:56.301Z,75.74
2023-02-06T06:47:58.112Z,75.43
2023-02-06T06:52:59.880Z,75.82
2023-02-06T06:58:01.617Z,75.85
2023-02-06T07:03:03.444Z,75.96
2023-02-06T07:08:05.529Z,76.17
2023-02-06T07:13:07.176Z,75.71
2023-02-06T07:18:11.382Z,76.13
2023-02-06T07:23:13.289Z,76.19
2023-02-06T07:28:15.070Z,76.56
2023-02-06T07:33:16.971Z,76.92
2023-02-06T07:38:18.587Z,77.25
2023-02-06T07:43:20.308Z,77.07
2023-02-06T07:48:22.575Z,77.28
2023-02-06T07:53:24.173Z,77.10
2023-02-06T07:58:26.061Z,76.83
2023-02-06T08:03:27.708Z,77.16
2023-02-06T08:08:29.335Z,77.31
2023-02-06T08:13:31.350Z,77.57
2023-02-06T08:18:33.944Z,78.04
2023-02-06T08:23:35.495Z,78.10
2023-02-06T08:28:38.007Z,78.11
2023-02-06T08:33:39.899Z,78.38
2023-02-06T08:38:42.372Z,78.58
2023-02-06T08:43:45.170Z,78.29
2023-02-06T08:48:46.872Z,78.48
2023-02-06T08:53:48.651Z,79.02
2023-02-06T08:58:50.413Z,78.99
2023-02-06T09:04:00.335Z,78.93
2023-02-06T09:09:02.614Z,78.99
2023-02-06T09:14:05.689Z,78.66
2023-02-06T09:19:10.671Z,78.48
2023-02-06T09:24:12.380Z,79.03
2023-02-06T09:29:14.254Z,78.91
2023-02-06T09:34:15.967Z,78.63
2023-02-06T09:39:17.978Z,78.38
2023-02-06T09:44:24.401Z,78.51
2023-02-06T09:49:39.333Z,78.66
2023-02-06T09:54:56.728Z,78.50
2023-02-06T10:00:02.757Z,78.47
2023-02-06T10:05:22.317Z,78.22
2023-02-06T10:10:37.843Z,78.29
2023-02-06T10:15:47.531Z,77.00
2023-02-06T10:21:01.660Z,76.64
2023-02-06T10:26:17.062Z,75.94
2023-02-06T10:31:30.535Z,75.50
2023-02-06T10:37:10.358Z,75.07
2023-02-06T10:42:33.648Z,74.79
2023-02-06T10:47:46.079Z,73.76
2023-02-06T10:52:48.692Z,72.50
2023-02-06T10:57:56.865Z,72.01
2023-02-06T11:03:07.579Z,71.69
2023-02-06T11:08:20.394Z,70.31
2023-02-06T11:13:33.757Z,70.08
2023-02-06T11:18:39.052Z,70.21
2023-02-06T11:23:42.234Z,69.24
2023-02-06T11:29:08.814Z,69.25
2023-02-06T11:34:25.987Z,69.21
2023-02-06T11:39:34.099Z,69.37
2023-02-06T11:44:41.053Z,69.97
2023-02-06T11:49:42.817Z,69.24
2023-02-06T11:54:54.465Z,68.52
2023-02-06T12:00:20.774Z,68.76
2023-02-06T12:05:28.549Z,68.33
2023-02-06T12:10:36.343Z,68.81
2023-02-06T12:15:48.052Z,69.20
2023-02-06T12:21:05.245Z,69.53
2023-02-06T12:26:18.083Z,69.17
2023-02-06T12:31:26.653Z,69.01
2023-02-06T12:36:35.209Z,68.79
2023-02-06T12:42:01.794Z,69.33
2023-02-06T12:47:13.974Z,68.55
2023-02-06T12:52:33.818Z,68.46
2023-02-06T12:57:37.129Z,68.10
2023-02-06T13:02:51.830Z,67.62
2023-02-06T13:07:57.130Z,67.18
2023-02-06T13:12:59.657Z,67.43
2023-02-06T13:18:01.502Z,67.15
2023-02-06T13:23:12.086Z,66.67
2023-02-06T13:28:23.032Z,66.88
2023-02-06T13:33:27.019Z,66.62
2023-02-06T13:38:35.034Z,66.28
2023-02-06T13:43:37.413Z,66.50
2023-02-06T13:49:33.094Z,66.25
2023-02-06T13:54:53.246Z,66.12
2023-02-06T14:00:17.352Z,65.42
2023-02-06T14:05:22.406Z,65.36
2023-02-06T14:11:10.306Z,64.64
2023-02-06T14:16:50.572Z,64.99
2023-02-06T14:22:12.597Z,65.53
2023-02-06T14:27:26.565Z,65.63
2023-02-06T14:32:28.517Z,65.74
2023-02-06T14:38:01.013Z,65.65
2023-02-06T14:43:07.990Z,66.13
2023-02-06T14:48:34.284Z,67.18
2023-02-06T14:53:40.648Z,68.14
2023-02-06T14:58:46.573Z,69.13
2023-02-06T15:03:52.437Z,69.76
2023-02-06T15:08:54.308Z,70.00
2023-02-06T15:13:56.483Z,69.86
2023-02-06T15:19:22.463Z,70.41
2023-02-06T15:24:51.706Z,70.61
2023-02-06T15:29:54.376Z,71.04
2023-02-06T15:34:56.217Z,71.17
2023-02-06T15:40:06.615Z,71.50
2023-02-06T15:45:17.758Z,72.02
2023-02-06T15:50:22.077Z,72.81
2023-02-06T15:55:27.211Z,74.13
2023-02-06T16:00:34.975Z,75.38
2023-02-06T16:05:42.041Z,76.53
2023-02-06T16:10:49.996Z,77.12
2023-02-06T16:16:02.521Z,77.92
2023-02-06T16:21:16.287Z,78.47
2023-02-06T16:26:27.639Z,78.66
2023-02-06T16:31:31.775Z,78.82
2023-02-06T16:36:33.837Z,78.78
2023-02-06T16:41:38.143Z,78.82
2023-02-06T16:46:40.477Z,78.65
2023-02-06T16:51:44.043Z,78.96
2023-02-06T16:56:46.283Z,79.12
2023-02-06T17:01:47.971Z,79.10
2023-02-06T17:06:50.287Z,79.05
2023-02-06T17:11:53.189Z,79.06
2023-02-06T17:16:55.650Z,79.07
2023-02-06T17:21:57.452Z,79.23
2023-02-06T17:27:01.363Z,79.25
2023-02-06T17:32:03.309Z,79.31
2023-02-06T17:37:08.056Z,79.52
2023-02-06T17:42:09.696Z,79.82
2023-02-06T17:47:11.460Z,79.71
2023-02-06T17:52:13.305Z,79.90
2023-02-06T17:57:15.024Z,79.87
2023-02-06T18:02:16.961Z,79.90
2023-02-06T18:07:18.743Z,80.09
2023-02-06T18:12:20.537Z,79.61
2023-02-06T18:17:22.540Z,79.91
2023-02-06T18:22:24.225Z,80.31
2023-02-06T18:27:25.919Z,80.11
2023-02-06T18:32:27.777Z,80.20
2023-02-06T18:37:29.725Z,79.78
2023-02-06T18:42:50.039Z,80.03
2023-02-06T18:47:52.140Z,80.05
2023-02-06T18:52:53.878Z,79.84
2023-02-06T18:57:55.595Z,79.70
2023-02-06T19:02:58.318Z,79.57
2023-02-06T19:07:59.856Z,79.30
2023-02-06T19:13:01.499Z,79.06
2023-02-06T19:18:05.516Z,79.03
2023-02-06T19:23:08.405Z,79.03
2023-02-06T19:28:10.393Z,79.01
2023-02-06T19:33:12.157Z,78.64
2023-02-06T19:38:13.812Z,78.23
2023-02-06T19:43:16.177Z,78.25
2023-02-06T19:48:17.995Z,78.36
2023-02-06T19:53:19.652Z,78.19
2023-02-06T19:58:21.330Z,78.51
2023-02-06T20:03:23.431Z,77.09
2023-02-06T20:08:25.208Z,77.48
2023-02-06T20:13:27.257Z,77.76
2023-02-06T20:18:33.562Z,77.76
2023-02-06T20:23:38.317Z,77.49
2023-02-06T20:28:39.987Z,77.61
2023-02-06T20:33:42.821Z,77.36
2023-02-06T20:38:49.431Z,77.12
2023-02-06T20:43:51.404Z,77.61
2023-02-06T20:49:02.242Z,77.62
2023-02-06T20:54:04.538Z,77.70
2023-02-06T20:59:07.066Z,78.00
2023-02-06T21:04:11.269Z,77.59
2023-02-06T21:09:12.902Z,77.50
2023-02-06T21:14:14.857Z,78.21
2023-02-06T21:19:18.941Z,77.73
2023-02-06T21:24:20.618Z,77.81
2023-02-06T21:29:25.089Z,76.80
2023-02-06T21:34:26.857Z,76.77
2023-02-06T21:39:30.465Z,77.45
2023-02-06T21:44:32.150Z,77.52
2023-02-06T21:49:33.848Z,77.72
2023-02-06T21:54:35.571Z,77.40
2023-02-06T21:59:38.404Z,77.31
2023-02-06T22:04:40.099Z,77.03
2023-02-06T22:09:41.987Z,77.08
2023-02-06T22:14:43.662Z,77.57
2023-02-06T22:19:45.769Z,77.24
2023-02-06T22:24:50.454Z,77.60
2023-02-06T22:29:52.202Z,77.48
2023-02-06T22:34:54.046Z,76.90
2023-02-06T22:39:55.881Z,77.30
2023-02-06T22:44:57.653Z,77.40
2023-02-06T22:49:59.468Z,77.83
2023-02-06T22:55:03.165Z,77.80
2023-02-06T23:00:09.277Z,78.30
2023-02-06T23:05:11.209Z,77.83
2023-02-06T23:10:12.825Z,78.24
2023-02-06T23:15:14.585Z,77.94
2023-02-06T23:20:16.482Z,77.81
2023-02-06T23:25:18.140Z,78.59
2023-02-06T23:30:20.201Z,78.40
2023-02-06T23:35:21.923Z,78.27
2023-02-06T23:40:23.708Z,78.44
2023-02-06T23:45:26.240Z,78.30
2023-02-06T23:50:28.134Z,78.24
2023-02-06T23:55:30.600Z,78.48
